Time;durP1;ratioP1;P1;durP2;ratioP2;P2;SDS_P1;SDS_P2;PMS_P1;PMS_P2;Temp;Humidity;BMP_temperature;BMP_pressure;BME280_temperature;BME280_humidity;BME280_pressure;Samples;Min_cycle;Max_cycle;Signal;HPM_P1;HPM_P2
2023/01/29 00:01:55;;;;;;;8.35;4.15;;;;;;;3.39;71.59;101631.19;4916313;29;20032;-83
2023/01/29 00:04:20;;;;;;;2.95;2.17;;;;;;;3.39;71.84;101632.88;4915595;29;20051;-82
2023/01/29 00:06:46;;;;;;;7.28;4.15;;;;;;;3.39;71.54;101640.56;4900236;29;20600;-83
2023/01/29 00:09:12;;;;;;;4.05;2.47;;;;;;;3.36;71.60;101636.31;4916110;29;20034;-83
2023/01/29 00:11:37;;;;;;;2.60;2.13;;;;;;;3.34;71.92;101637.16;4918602;29;20477;-83
2023/01/29 00:14:03;;;;;;;2.28;1.55;;;;;;;3.40;71.70;101647.38;4920184;29;20024;-83
2023/01/29 00:16:29;;;;;;;3.20;2.38;;;;;;;3.35;71.87;101651.66;4919888;29;20495;-83
2023/01/29 00:18:54;;;;;;;2.50;2.30;;;;;;;3.46;71.45;101655.03;4935213;29;20478;-83
2023/01/29 00:21:23;;;;;;;4.45;3.40;;;;;;;3.39;71.91;101651.63;4919679;29;20476;-83
2023/01/29 00:23:49;;;;;;;5.07;2.13;;;;;;;3.39;72.15;101668.69;4920222;29;20054;-83
2023/01/29 00:26:15;;;;;;;1.80;1.63;;;;;;;3.36;72.34;101664.44;4920030;29;20475;-83
2023/01/29 00:28:40;;;;;;;5.60;2.50;;;;;;;3.08;71.58;101611.66;4919764;29;20028;-83
2023/01/29 00:31:10;;;;;;;5.43;2.72;;;;;;;3.38;71.20;101664.44;4935665;29;20044;-83
2023/01/29 00:33:35;;;;;;;2.17;1.83;;;;;;;3.38;71.75;101672.97;4903582;29;20027;-83
2023/01/29 00:36:05;;;;;;;4.38;2.28;;;;;;;3.26;71.18;101644.88;4919451;29;20388;-83
2023/01/29 00:38:31;;;;;;;8.02;3.15;;;;;;;3.40;71.50;101678.06;4935220;29;20035;-83
2023/01/29 00:46:24;;;;;;;2.72;1.90;;;;;;;3.40;70.89;101678.06;4935287;29;20039;-83
2023/01/29 00:48:50;;;;;;;5.63;3.30;;;;;;;3.38;71.01;101674.66;4934661;29;20032;-83
2023/01/29 00:51:15;;;;;;;4.30;2.97;;;;;;;3.33;71.24;101673.81;4919123;29;20491;-83
2023/01/29 00:53:41;;;;;;;3.95;3.08;;;;;;;3.43;70.85;101688.28;4918897;29;20108;-82
2023/01/29 00:56:06;;;;;;;3.55;2.33;;;;;;;3.30;71.06;101667.00;4934709;29;20028;-83
2023/01/29 00:58:34;;;;;;;5.63;3.42;;;;;;;3.47;70.80;101687.44;4934564;29;20040;-83
2023/01/29 01:01:01;;;;;;;4.15;2.90;;;;;;;3.51;71.37;101691.69;4919713;29;20042;-83
2023/01/29 01:03:26;;;;;;;3.03;2.10;;;;;;;3.17;71.51;101630.41;4918794;29;20073;-83
2023/01/29 01:06:03;;;;;;;8.70;2.42;;;;;;;3.53;71.74;101692.53;4934419;29;20511;-83
2023/01/29 01:11:12;;;;;;;4.45;2.80;;;;;;;3.41;71.32;101690.00;4934806;29;20087;-83
2023/01/29 01:13:38;;;;;;;2.60;2.08;;;;;;;3.37;71.01;101676.38;4918839;29;20023;-82
2023/01/29 01:16:11;;;;;;;6.18;2.40;;;;;;;3.47;71.29;101699.38;4918193;29;20567;-83
2023/01/29 01:18:36;;;;;;;2.97;2.70;;;;;;;3.56;71.19;101695.09;4903313;29;20134;-83
2023/01/29 01:21:02;;;;;;;2.53;2.05;;;;;;;3.47;71.08;101695.13;4918644;29;20411;-83
2023/01/29 01:23:28;;;;;;;4.97;2.28;;;;;;;3.60;70.70;101691.66;4918004;29;20031;-83
2023/01/29 01:25:54;;;;;;;3.33;2.45;;;;;;;3.55;71.39;101702.78;4934510;29;20464;-83
2023/01/29 01:28:19;;;;;;;4.55;2.35;;;;;;;3.48;70.77;101689.13;4918664;29;20038;-83
2023/01/29 01:30:45;;;;;;;2.92;2.63;;;;;;;3.52;70.36;101695.94;4918079;29;20027;-83
2023/01/29 01:33:10;;;;;;;3.75;2.28;;;;;;;3.39;70.38;101681.47;4918574;29;20043;-83
2023/01/29 01:35:37;;;;;;;4.47;2.22;;;;;;;3.60;70.19;101698.47;4918083;29;20508;-82
2023/01/29 01:38:02;;;;;;;4.22;2.88;;;;;;;3.54;70.20;101698.47;4918131;29;20115;-83
2023/01/29 01:40:28;;;;;;;1.67;1.45;;;;;;;3.40;70.25;101688.31;4918254;29;20471;-82
2023/01/29 01:42:57;;;;;;;2.58;1.58;;;;;;;3.48;70.58;101704.50;4918361;29;20046;-82
2023/01/29 01:45:26;;;;;;;4.25;2.30;;;;;;;3.19;70.73;101657.66;4918096;29;20027;-83
2023/01/29 01:48:02;;;;;;;2.85;1.95;;;;;;;3.40;70.95;101683.19;4935015;29;20423;-83
2023/01/29 01:50:30;;;;;;;3.28;2.72;;;;;;;3.49;71.26;101698.50;4919151;29;20451;-82
2023/01/29 01:52:59;;;;;;;2.28;1.92;;;;;;;3.38;70.87;101670.41;4918259;29;20032;-83
2023/01/29 01:55:26;;;;;;;3.25;2.35;;;;;;;3.50;71.10;101707.88;4918246;29;20039;-82
2023/01/29 01:57:54;;;;;;;2.88;2.20;;;;;;;3.43;71.25;101695.97;4902277;29;20086;-83
2023/01/29 02:00:20;;;;;;;2.88;1.55;;;;;;;3.34;71.38;101684.06;4917646;29;20031;-82
2023/01/29 02:10:59;;;;;;;2.08;1.80;;;;;;;3.32;71.31;101684.91;4933787;29;20070;-82
2023/01/29 02:13:25;;;;;;;3.53;2.05;;;;;;;3.36;71.36;101697.69;4917648;29;20488;-83
2023/01/29 02:15:50;;;;;;;4.47;3.20;;;;;;;3.39;71.25;101699.38;4933250;29;20078;-83
2023/01/29 02:18:18;;;;;;;2.85;2.45;;;;;;;3.38;71.89;101701.09;4901803;29;20479;-82
2023/01/29 02:21:01;;;;;;;2.85;2.00;;;;;;;3.51;71.65;101707.03;4917986;29;20028;-82
2023/01/29 02:23:32;;;;;;;3.88;1.70;;;;;;;3.41;71.02;101690.00;4919560;29;20487;-82
2023/01/29 02:26:12;;;;;;;3.75;2.28;;;;;;;3.45;71.08;101707.06;4934447;29;20023;-82
2023/01/29 02:28:41;;;;;;;4.53;3.20;;;;;;;3.44;71.09;101700.22;4902537;29;20111;-83
2023/01/29 02:31:17;;;;;;;4.95;2.97;;;;;;;3.47;71.59;101709.63;4934700;29;20034;-83
2023/01/29 02:34:04;;;;;;;0.88;0.77;;;;;;;3.54;70.96;101709.59;4917785;29;20086;-82
2023/01/29 02:36:33;;;;;;;2.72;2.10;;;;;;;3.49;70.86;101710.44;4933845;29;20036;-83
2023/01/29 02:39:19;;;;;;;3.95;1.75;;;;;;;3.43;71.07;101708.75;4948867;29;20122;-82
2023/01/29 02:41:55;;;;;;;2.22;1.95;;;;;;;3.36;70.22;101696.84;4933615;29;20528;-83
2023/01/29 02:45:05;;;;;;;3.88;2.42;;;;;;;3.22;71.20;101670.44;4918531;29;20114;-82
2023/01/29 02:47:34;;;;;;;2.13;1.85;;;;;;;3.46;70.07;101719.00;4928150;29;20047;-82
2023/01/29 02:50:32;;;;;;;2.03;1.88;;;;;;;3.19;70.87;101662.78;4948891;29;20051;-83
2023/01/29 02:53:25;;;;;;;2.17;1.73;;;;;;;3.47;70.49;101714.72;4932940;29;20099;-83
2023/01/29 02:55:52;;;;;;;;;;;;;;;3.50;70.33;101720.69;4930835;29;20095;-82
2023/01/29 02:58:30;;;;;;;3.50;2.45;;;;;;;3.28;70.20;101691.75;4948099;29;19921;-82
2023/01/29 03:00:59;;;;;;;1.77;0.60;;;;;;;3.45;69.94;101704.50;4917088;29;20122;-82
2023/01/29 03:03:44;;;;;;;3.10;1.70;;;;;;;3.25;70.61;101673.84;4917317;29;20479;-82
2023/01/29 03:06:19;;;;;;;3.97;1.52;;;;;;;3.44;70.20;101695.09;4916842;29;20103;-82
2023/01/29 03:09:04;;;;;;;1.20;1.10;;;;;;;3.50;69.74;101704.47;4948262;29;20415;-82
2023/01/29 03:11:34;;;;;;;2.70;1.67;;;;;;;3.54;69.92;101711.28;4917639;29;20079;-82
2023/01/29 03:14:09;;;;;;;4.22;2.05;;;;;;;3.53;70.15;101705.31;4900688;29;20043;-82
2023/01/29 03:17:04;;;;;;;2.28;1.67;;;;;;;3.52;70.29;101708.72;4916986;29;20552;-82
2023/01/29 03:19:35;;;;;;;3.88;1.88;;;;;;;3.42;70.55;101697.66;4927723;29;20044;-82
2023/01/29 03:22:03;;;;;;;4.88;2.15;;;;;;;3.48;70.30;101713.88;4901347;29;20519;-82
2023/01/29 03:32:52;;;;;;;1.90;1.80;;;;;;;3.32;70.34;101700.25;4918920;29;20086;-82
2023/01/29 03:35:32;;;;;;;2.47;1.70;;;;;;;3.31;70.39;101698.56;4916210;29;20460;-82
2023/01/29 03:37:58;;;;;;;5.18;1.73;;;;;;;3.41;70.56;101718.13;4918389;29;20054;-83
2023/01/29 03:40:23;;;;;;;3.38;3.08;;;;;;;3.30;70.99;101695.16;4916420;29;20059;-82
2023/01/29 03:43:09;;;;;;;4.72;2.92;;;;;;;3.39;71.01;101723.25;4916128;29;20466;-83
2023/01/29 03:45:43;;;;;;;2.92;1.70;;;;;;;3.41;70.83;101715.59;4934167;29;20110;-82
2023/01/29 03:48:12;;;;;;;4.07;1.88;;;;;;;3.42;70.58;101717.28;4952092;29;20027;-82
2023/01/29 03:51:09;;;;;;;3.30;2.35;;;;;;;3.20;70.65;101690.06;4952043;29;20118;-82
2023/01/29 03:53:48;;;;;;;2.85;2.50;;;;;;;3.33;70.93;101712.19;4922082;29;20036;-83
2023/01/29 03:56:34;;;;;;;4.97;3.15;;;;;;;3.19;70.67;101678.13;4951598;29;20027;-82
2023/01/29 03:59:17;;;;;;;2.80;2.33;;;;;;;3.33;71.27;101717.28;4921678;29;20047;-83
2023/01/29 04:01:57;;;;;;;6.35;3.63;;;;;;;3.23;71.18;101705.38;4951714;29;20035;-82
2023/01/29 04:04:36;;;;;;;11.00;4.80;;;;;;;3.16;71.19;101715.63;4919906;29;20432;-82
2023/01/29 04:07:06;;;;;;;9.80;2.72;;;;;;;2.83;71.63;101664.50;4904362;29;20059;-82
2023/01/29 04:09:35;;;;;;;5.05;2.55;;;;;;;3.19;71.94;101712.22;4920555;29;20516;-82
2023/01/29 04:12:09;;;;;;;5.57;3.47;;;;;;;2.94;71.56;101678.13;4920011;29;20515;-82
2023/01/29 04:14:35;;;;;;;4.45;2.83;;;;;;;3.13;71.82;101718.16;4936011;29;20039;-82
2023/01/29 04:17:07;;;;;;;3.30;2.05;;;;;;;3.07;70.98;101725.88;4919807;29;20036;-82
2023/01/29 04:19:33;;;;;;;2.92;1.90;;;;;;;3.04;71.20;101720.72;4920569;29;20039;-82
2023/01/29 04:22:17;;;;;;;4.22;2.47;;;;;;;3.10;71.46;101732.69;4919573;29;20035;-82
2023/01/29 04:24:43;;;;;;;1.17;1.08;;;;;;;2.96;71.19;101709.69;4935263;29;20032;-83
2023/01/29 04:27:29;;;;;;;3.58;2.35;;;;;;;3.15;70.75;101744.63;4919974;29;20087;-82
2023/01/29 04:30:01;;;;;;;2.47;2.08;;;;;;;3.23;71.30;101736.91;4951339;29;20032;-82
2023/01/29 04:32:57;;;;;;;3.30;2.15;;;;;;;2.96;71.19;101696.91;4951294;29;20032;-82
2023/01/29 04:35:35;;;;;;;1.85;1.60;;;;;;;3.22;71.66;101742.88;4936285;29;20031;-82
2023/01/29 04:38:45;;;;;;;3.65;2.80;;;;;;;3.27;71.49;101748.00;4951251;29;20031;-82
2023/01/29 04:41:13;;;;;;;4.22;1.90;;;;;;;3.36;71.34;101750.56;4935076;29;20048;-82
2023/01/29 04:44:14;;;;;;;2.30;1.40;;;;;;;3.31;70.81;101734.34;4936410;29;20024;-83
2023/01/29 04:46:48;;;;;;;2.33;1.88;;;;;;;3.07;70.67;101700.31;4935544;29;20040;-82
2023/01/29 04:49:23;;;;;;;6.28;1.98;;;;;;;3.38;70.85;101756.53;4919612;29;20032;-83
2023/01/29 04:52:13;;;;;;;1.63;1.48;;;;;;;3.23;71.02;101738.63;4950953;29;20415;-82
2023/01/29 04:54:51;;;;;;;1.48;1.33;;;;;;;3.22;70.67;101729.25;4934644;29;20174;-83
2023/01/29 04:57:25;;;;;;;4.20;2.40;;;;;;;3.37;70.46;101752.25;4935008;29;20047;-82
2023/01/29 05:00:22;;;;;;;5.85;2.67;;;;;;;3.30;71.02;101753.13;4919194;29;20035;-82
2023/01/29 05:02:48;;;;;;;8.10;3.95;;;;;;;3.31;70.86;101770.16;4934833;29;20031;-83
2023/01/29 05:05:14;;;;;;;2.15;1.52;;;;;;;3.26;71.43;101754.00;4918844;29;20047;-82
2023/01/29 05:07:39;;;;;;;12.85;4.72;;;;;;;3.27;71.17;101763.34;4918673;29;20028;-82
2023/01/29 05:10:06;;;;;;;4.78;2.55;;;;;;;3.28;71.21;101767.63;4918597;29;20035;-82
2023/01/29 05:12:31;;;;;;;4.57;2.53;;;;;;;3.18;71.46;101746.31;4918754;29;20028;-82
2023/01/29 05:14:58;;;;;;;2.25;1.85;;;;;;;3.24;71.59;101753.13;4918782;29;20031;-82
2023/01/29 05:17:24;;;;;;;5.38;3.53;;;;;;;3.27;71.57;101759.09;4919141;29;20031;-82
2023/01/29 05:19:49;;;;;;;2.90;2.38;;;;;;;3.37;71.42;101767.63;4918922;29;20519;-83
2023/01/29 05:22:16;;;;;;;3.50;2.63;;;;;;;3.29;71.26;101764.22;4934483;29;20118;-83
2023/01/29 05:24:41;;;;;;;1.63;1.52;;;;;;;3.21;71.74;101769.31;4918813;29;20032;-83
2023/01/29 05:29:55;;;;;;;3.05;2.38;;;;;;;3.03;71.42;101734.38;4921225;29;20147;-82
2023/01/29 05:32:20;;;;;;;4.80;3.92;;;;;;;3.00;71.59;101721.59;4934668;29;20028;-82
2023/01/29 05:34:46;;;;;;;5.32;2.88;;;;;;;3.17;71.45;101752.28;4934189;29;20034;-83
2023/01/29 05:37:11;;;;;;;5.05;3.92;;;;;;;3.24;71.54;101773.56;4918042;29;20031;-82
2023/01/29 05:39:37;;;;;;;4.03;3.60;;;;;;;3.26;71.46;101777.00;4918290;29;20040;-82
2023/01/29 05:42:02;;;;;;;7.97;3.33;;;;;;;3.29;71.48;101772.72;4902523;29;20032;-82
2023/01/29 05:44:28;;;;;;;7.43;2.35;;;;;;;3.24;72.04;101768.47;4934086;29;20514;-82
2023/01/29 05:46:53;;;;;;;3.45;2.17;;;;;;;3.22;71.35;101775.28;4933983;29;20143;-82
2023/01/29 05:49:19;;;;;;;6.68;5.35;;;;;;;3.12;71.67;101754.81;4918124;29;20039;-82
2023/01/29 05:51:45;;;;;;;10.23;4.72;;;;;;;3.14;72.17;101773.56;4933950;29;20067;-83
2023/01/29 05:54:11;;;;;;;3.47;2.75;;;;;;;3.23;72.11;101779.53;4949808;29;20044;-82
2023/01/29 05:56:37;;;;;;;5.47;3.63;;;;;;;3.12;72.00;101767.59;4902285;29;20027;-82
2023/01/29 05:59:02;;;;;;;4.50;3.80;;;;;;;3.15;72.44;101795.75;4933507;29;20051;-83
2023/01/29 06:01:28;;;;;;;5.43;4.28;;;;;;;2.96;72.51;101760.81;4918023;29;20088;-82
2023/01/29 06:03:54;;;;;;;5.75;3.75;;;;;;;3.09;72.24;101793.19;4917830;29;20032;-83
2023/01/29 06:06:19;;;;;;;3.92;2.67;;;;;;;3.05;72.29;101788.94;4933337;29;20037;-83
2023/01/29 06:08:45;;;;;;;7.45;5.35;;;;;;;3.00;73.12;101794.88;4917747;29;20426;-82
2023/01/29 06:11:11;;;;;;;8.10;5.30;;;;;;;3.02;73.09;101798.28;4917404;29;20114;-82
2023/01/29 06:13:36;;;;;;;6.57;5.47;;;;;;;3.04;72.46;101796.56;4917687;29;20533;-82
2023/01/29 06:16:06;;;;;;;7.07;5.07;;;;;;;3.10;72.47;101800.00;4917778;29;20110;-82
2023/01/29 06:18:32;;;;;;;10.73;4.93;;;;;;;3.01;72.14;101794.88;4917611;29;20487;-83
2023/01/29 06:21:04;;;;;;;10.65;5.57;;;;;;;3.10;72.04;101807.69;4932847;29;20072;-82
2023/01/29 06:23:29;;;;;;;12.45;5.57;;;;;;;3.04;72.58;101807.66;4917663;29;20131;-83
2023/01/29 06:25:59;;;;;;;7.35;4.90;;;;;;;2.99;72.55;101819.59;4917184;29;20032;-83
2023/01/29 06:28:25;;;;;;;5.10;3.22;;;;;;;2.88;72.62;101800.84;4917556;29;20035;-82
2023/01/29 06:30:50;;;;;;;8.55;5.63;;;;;;;3.04;72.55;101825.56;4917377;29;20514;-82
2023/01/29 06:33:16;;;;;;;8.30;4.07;;;;;;;2.87;72.64;101810.22;4917214;29;20035;-82
2023/01/29 06:35:41;;;;;;;7.32;4.78;;;;;;;3.06;72.47;101836.66;4917306;29;20411;-83
2023/01/29 06:38:07;;;;;;;8.73;5.60;;;;;;;3.04;72.53;101837.50;4901487;29;20032;-82
2023/01/29 06:40:32;;;;;;;11.52;7.38;;;;;;;3.06;72.56;101839.22;4917279;29;20035;-82
2023/01/29 06:42:59;;;;;;;9.43;5.78;;;;;;;3.08;72.38;101837.50;4917180;29;20036;-82
2023/01/29 06:45:25;;;;;;;8.90;5.68;;;;;;;3.07;72.49;101842.63;4917130;29;20038;-82
2023/01/29 06:47:50;;;;;;;11.73;7.13;;;;;;;3.02;72.15;101834.09;4932929;29;20119;-82
2023/01/29 06:50:16;;;;;;;10.52;7.35;;;;;;;3.09;72.82;101841.78;4932660;29;20035;-82
2023/01/29 06:52:41;;;;;;;14.45;6.22;;;;;;;3.06;72.56;101852.00;4932973;29;20032;-82
2023/01/29 06:55:07;;;;;;;6.03;5.00;;;;;;;3.05;72.78;101857.97;4932456;29;20499;-82
2023/01/29 06:57:33;;;;;;;9.15;5.15;;;;;;;2.93;72.74;101840.03;4916948;29;20059;-82
2023/01/29 06:59:58;;;;;;;6.80;3.80;;;;;;;3.11;72.88;101859.66;4932717;29;20770;-82
2023/01/29 07:02:24;;;;;;;5.20;3.92;;;;;;;2.96;72.81;101845.16;4916790;29;20107;-82
2023/01/29 07:04:49;;;;;;;11.68;7.15;;;;;;;3.01;73.07;101861.34;4931907;29;20554;-82
2023/01/29 07:07:15;;;;;;;10.73;5.72;;;;;;;2.99;72.97;101855.38;4932013;29;20028;-82
2023/01/29 07:09:40;;;;;;;6.97;4.78;;;;;;;3.00;73.06;101835.78;4900955;29;20499;-82
2023/01/29 07:12:07;;;;;;;14.32;7.40;;;;;;;3.11;72.97;101857.97;4916703;29;20075;-82
2023/01/29 07:14:32;;;;;;;8.68;6.93;;;;;;;3.07;72.89;101842.63;4901117;29;20024;-82
2023/01/29 07:16:58;;;;;;;4.75;4.00;;;;;;;3.12;73.09;101863.91;4932528;29;20389;-82
2023/01/29 07:19:23;;;;;;;13.85;5.90;;;;;;;3.13;73.33;101847.72;4916289;29;20059;-82
2023/01/29 07:21:49;;;;;;;7.78;6.35;;;;;;;3.16;72.78;101848.59;4900485;29;20087;-82
2023/01/29 07:24:15;;;;;;;8.43;5.15;;;;;;;3.34;73.13;101862.22;4916504;29;20027;-82
2023/01/29 07:26:40;;;;;;;6.65;5.35;;;;;;;3.20;73.16;101838.38;4916736;29;20481;-83
2023/01/29 07:29:06;;;;;;;6.38;4.82;;;;;;;3.42;72.50;101871.63;4916627;29;20087;-82
2023/01/29 07:31:31;;;;;;;14.60;6.53;;;;;;;3.28;72.98;101821.31;4916389;29;20038;-82
2023/01/29 07:33:57;;;;;;;8.43;5.78;;;;;;;3.35;72.23;101828.16;4931851;29;20079;-82
2023/01/29 07:36:23;;;;;;;7.07;4.57;;;;;;;3.60;72.30;101869.94;4932245;29;20043;-82
2023/01/29 07:38:49;;;;;;;6.63;3.85;;;;;;;3.74;72.03;101868.22;4932162;29;20095;-82
2023/01/29 07:41:15;;;;;;;9.55;7.15;;;;;;;3.87;72.56;101863.94;4916543;29;20039;-82
2023/01/29 07:43:40;;;;;;;9.43;5.55;;;;;;;3.91;71.74;101865.63;4916428;29;20024;-82
2023/01/29 07:46:06;;;;;;;5.30;4.45;;;;;;;3.92;71.29;101857.09;4916432;29;20492;-82
2023/01/29 07:48:31;;;;;;;7.47;5.07;;;;;;;4.06;70.54;101880.97;4915768;29;20024;-82
2023/01/29 07:50:57;;;;;;;7.65;3.83;;;;;;;4.04;70.13;101877.56;4916488;29;20038;-82
2023/01/29 07:53:23;;;;;;;1.20;0.80;;;;;;;4.01;70.74;101882.66;4916572;29;20031;-82
2023/01/29 07:55:48;;;;;;;7.15;2.15;;;;;;;4.01;69.90;101875.00;4916369;29;20063;-82
2023/01/29 07:58:14;;;;;;;7.85;3.85;;;;;;;4.00;69.77;101880.97;4932101;29;20032;-82
2023/01/29 08:00:39;;;;;;;9.45;3.78;;;;;;;4.09;69.71;101882.66;4948066;29;20032;-82
2023/01/29 08:03:06;;;;;;;11.32;3.60;;;;;;;4.13;70.06;101890.34;4915784;29;20414;-82
2023/01/29 08:05:32;;;;;;;4.75;2.15;;;;;;;4.15;69.28;101880.09;4915798;29;20598;-83
2023/01/29 08:07:58;;;;;;;7.65;2.80;;;;;;;4.31;69.17;101894.56;4916295;29;20031;-82
2023/01/29 08:10:23;;;;;;;2.17;1.65;;;;;;;4.19;69.57;101881.78;4916233;29;20098;-82
2023/01/29 08:12:56;;;;;;;9.10;4.20;;;;;;;4.39;68.88;101889.41;4915900;29;20526;-82
2023/01/29 08:15:21;;;;;;;4.90;3.72;;;;;;;4.28;68.60;101884.31;4916064;29;20027;-82
2023/01/29 08:17:47;;;;;;;4.18;3.05;;;;;;;4.39;68.62;101872.31;4947402;29;20539;-83
2023/01/29 08:20:13;;;;;;;4.45;3.83;;;;;;;4.54;68.33;101877.41;4931997;29;20023;-82
2023/01/29 08:22:38;;;;;;;5.82;4.07;;;;;;;4.54;68.58;101864.59;4931931;29;20596;-82
2023/01/29 08:25:04;;;;;;;5.03;3.25;;;;;;;4.63;67.60;101878.22;4931629;29;20028;-83
2023/01/29 08:27:29;;;;;;;3.92;3.50;;;;;;;4.68;67.27;101882.47;4916221;29;20034;-82
2023/01/29 08:29:55;;;;;;;5.03;3.22;;;;;;;4.76;67.70;101890.97;4916298;29;20098;-83
2023/01/29 08:32:20;;;;;;;6.75;4.63;;;;;;;4.72;67.56;101884.16;4915709;29;20039;-83
2023/01/29 08:34:46;;;;;;;7.07;4.18;;;;;;;4.75;67.61;101876.47;4919564;29;20031;-82
2023/01/29 08:37:11;;;;;;;7.28;4.22;;;;;;;4.88;66.93;101887.50;4935514;29;20035;-83
2023/01/29 08:39:37;;;;;;;5.43;3.35;;;;;;;4.94;66.26;101907.13;4935127;29;20106;-82
2023/01/29 08:42:02;;;;;;;10.73;4.72;;;;;;;4.84;66.54;101889.22;4919660;29;20114;-82
2023/01/29 08:44:28;;;;;;;8.90;3.92;;;;;;;4.92;66.31;101896.00;4919363;29;20032;-82
2023/01/29 08:46:53;;;;;;;9.15;4.07;;;;;;;5.00;66.68;101894.25;4934751;29;20035;-83
2023/01/29 08:49:19;;;;;;;3.25;2.95;;;;;;;5.17;66.43;101907.84;4934867;29;20031;-82
2023/01/29 08:51:44;;;;;;;5.30;2.97;;;;;;;5.24;65.71;101898.41;4935091;29;20036;-83
2023/01/29 08:54:10;;;;;;;6.95;4.95;;;;;;;5.32;65.66;101906.91;4919168;29;20577;-83
2023/01/29 08:56:35;;;;;;;9.25;3.85;;;;;;;5.38;65.95;101912.84;4918914;29;20522;-83
2023/01/29 08:59:01;;;;;;;7.25;3.05;;;;;;;5.38;65.38;101892.31;4919069;29;20031;-83
2023/01/29 09:01:26;;;;;;;10.63;4.25;;;;;;;5.48;65.36;101906.78;4934578;29;20031;-83
2023/01/29 09:03:51;;;;;;;8.88;4.25;;;;;;;5.54;65.23;101917.88;4918742;29;20575;-82
2023/01/29 09:06:17;;;;;;;6.05;3.90;;;;;;;5.34;64.72;101890.63;4918721;29;20039;-82
2023/01/29 09:08:42;;;;;;;7.47;3.88;;;;;;;5.57;64.24;101908.41;4918552;29;20028;-82
2023/01/29 09:11:08;;;;;;;6.78;3.65;;;;;;;5.48;64.19;101909.34;4934401;29;20491;-82
2023/01/29 09:13:34;;;;;;;5.07;3.63;;;;;;;5.60;64.63;101918.66;4934690;29;20083;-82
2023/01/29 09:16:03;;;;;;;5.70;2.85;;;;;;;5.52;63.12;101906.78;4934201;29;20036;-82
2023/01/29 09:18:28;;;;;;;3.67;3.10;;;;;;;5.57;63.72;101907.56;4918468;29;20039;-82
2023/01/29 09:20:54;;;;;;;6.50;4.28;;;;;;;5.47;63.23;101920.47;4902933;29;20020;-82
2023/01/29 09:23:19;;;;;;;9.25;5.78;;;;;;;5.33;64.48;101899.19;4918571;29;20407;-82
2023/01/29 09:25:45;;;;;;;4.95;3.40;;;;;;;5.47;63.57;101901.66;4918730;29;20067;-82
2023/01/29 09:28:11;;;;;;;7.82;2.60;;;;;;;5.37;64.75;101892.31;4902879;29;20035;-82
2023/01/29 09:30:36;;;;;;;6.95;4.53;;;;;;;5.47;64.46;101896.53;4917920;29;20039;-82
2023/01/29 09:33:05;;;;;;;4.68;2.90;;;;;;;5.31;63.67;101882.97;4918556;29;20043;-82
2023/01/29 09:35:31;;;;;;;6.57;4.00;;;;;;;5.40;63.35;101895.69;4934429;29;20031;-82
2023/01/29 09:37:56;;;;;;;3.95;3.53;;;;;;;5.44;64.17;101897.41;4934168;29;20055;-82
2023/01/29 09:40:40;;;;;;;1.75;1.65;;;;;;;5.39;64.25;101893.16;4918343;29;20067;-82
2023/01/29 09:43:30;;;;;;;6.13;3.53;;;;;;;5.35;63.77;101887.19;4918456;29;20034;-82
2023/01/29 09:46:05;;;;;;;3.35;2.88;;;;;;;5.41;63.96;101879.47;4920538;29;20107;-82
2023/01/29 09:48:32;;;;;;;5.65;4.57;;;;;;;5.44;63.85;101891.41;4918458;29;20038;-82
2023/01/29 09:50:58;;;;;;;4.93;3.50;;;;;;;5.36;63.53;101883.78;4918176;29;20042;-82
2023/01/29 09:53:31;;;;;;;13.63;3.92;;;;;;;5.35;62.74;101871.81;4918157;29;20043;-82
2023/01/29 09:56:03;;;;;;;;;;;;;;;5.48;63.23;101881.09;4919216;29;20494;-82
2023/01/29 09:58:37;;;;;;;7.72;3.08;;;;;;;5.47;63.47;101884.53;4949502;29;19921;-82
2023/01/29 10:01:26;;;;;;;7.07;3.38;;;;;;;5.37;64.37;101854.66;4917654;29;20094;-82
2023/01/29 10:04:28;;;;;;;6.25;3.97;;;;;;;5.63;63.88;101875.00;4919654;29;20491;-82
2023/01/29 10:07:44;;;;;;;8.35;4.25;;;;;;;5.66;63.31;101859.56;4933678;29;20027;-83
2023/01/29 10:10:34;;;;;;;7.10;4.28;;;;;;;5.84;62.32;101867.97;4922803;29;20523;-82
2023/01/29 10:13:20;;;;;;;3.15;2.20;;;;;;;5.69;62.74;101831.28;4934189;29;20036;-82
2023/01/29 10:15:54;;;;;;;8.20;3.03;;;;;;;5.94;61.56;101859.34;4923286;29;20511;-82
2023/01/29 10:18:41;;;;;;;5.85;4.00;;;;;;;5.88;62.71;101847.38;4934856;29;20043;-82
2023/01/29 10:21:44;;;;;;;4.10;3.17;;;;;;;6.07;61.26;101844.66;4934325;29;20106;-82
2023/01/29 10:24:40;;;;;;;5.20;3.42;;;;;;;5.95;61.84;101825.09;4933475;29;20565;-82
2023/01/29 10:27:12;;;;;;;4.53;2.63;;;;;;;6.01;63.50;101833.59;4919794;29;20127;-82
2023/01/29 10:29:38;;;;;;;3.78;2.72;;;;;;;5.83;64.07;101815.75;4917676;29;20482;-82
2023/01/29 10:32:04;;;;;;;2.83;2.28;;;;;;;6.02;62.19;101830.13;4917326;29;20484;-82
2023/01/29 10:34:37;;;;;;;2.95;2.60;;;;;;;6.14;62.95;101823.16;4917560;29;20063;-82
2023/01/29 10:37:13;;;;;;;5.95;4.38;;;;;;;6.19;61.35;101818.81;4917624;29;20031;-82
2023/01/29 10:39:39;;;;;;;3.13;2.42;;;;;;;6.15;61.17;101779.47;4918019;29;20039;-82
2023/01/29 10:42:37;;;;;;;6.63;3.95;;;;;;;6.31;61.54;101811.81;4916676;29;20552;-82
2023/01/29 10:45:14;;;;;;;5.47;4.88;;;;;;;6.30;61.89;101806.69;4948877;29;20491;-82
2023/01/29 10:47:59;;;;;;;6.55;3.38;;;;;;;6.25;61.71;101813.59;4918000;29;20036;-82
2023/01/29 10:50:36;;;;;;;7.35;3.58;;;;;;;6.32;61.12;101813.50;4917940;29;20090;-82
2023/01/29 10:53:23;;;;;;;3.17;2.10;;;;;;;6.33;60.74;101817.78;4917929;29;20063;-82
2023/01/29 10:56:10;;;;;;;7.57;3.92;;;;;;;6.24;60.65;101819.63;4931858;29;20088;-83
2023/01/29 10:59:00;;;;;;;3.67;3.30;;;;;;;5.97;60.45;101775.38;4933721;29;20027;-83
2023/01/29 11:01:25;;;;;;;5.93;3.95;;;;;;;6.24;60.41;101804.19;4902428;29;20068;-82
2023/01/29 11:04:01;;;;;;;8.85;3.78;;;;;;;5.95;60.65;101772.00;4932373;29;20032;-82
2023/01/29 11:06:28;;;;;;;4.97;3.08;;;;;;;6.06;61.49;101783.84;4932390;29;20038;-83
2023/01/29 11:09:31;;;;;;;12.50;5.75;;;;;;;6.08;60.14;101792.38;4933725;29;20146;-82
2023/01/29 11:12:12;;;;;;;6.60;3.72;;;;;;;5.86;60.09;101782.34;4932498;29;20032;-82
2023/01/29 11:14:46;;;;;;;5.55;3.83;;;;;;;5.88;60.57;101795.16;4916779;29;20036;-83
2023/01/29 11:17:16;;;;;;;6.07;3.15;;;;;;;5.87;61.68;101778.91;4948457;29;20095;-83
2023/01/29 11:19:43;;;;;;;5.38;3.88;;;;;;;5.79;61.12;101775.56;4916855;29;20114;-82
2023/01/29 11:22:16;;;;;;;6.72;3.67;;;;;;;5.70;60.08;101766.25;4932386;29;20032;-82
2023/01/29 11:24:42;;;;;;;8.75;4.35;;;;;;;5.70;60.22;101788.47;4916637;29;20031;-82
2023/01/29 11:27:25;;;;;;;12.13;5.07;;;;;;;5.54;60.02;101757.00;4932736;29;20389;-82
2023/01/29 11:29:53;;;;;;;4.50;3.05;;;;;;;5.61;60.99;101760.38;4917084;29;20431;-83
2023/01/29 11:32:27;;;;;;;4.97;3.28;;;;;;;5.74;60.90;101767.91;4916675;29;20035;-82
2023/01/29 11:34:56;;;;;;;10.48;5.00;;;;;;;5.70;60.74;101771.41;4916496;29;20031;-83
2023/01/29 11:37:22;;;;;;;7.45;3.63;;;;;;;5.62;59.77;101760.34;4916699;29;20184;-82
2023/01/29 11:39:49;;;;;;;6.40;5.13;;;;;;;5.68;60.90;101761.97;4931853;29;20118;-83
2023/01/29 11:42:21;;;;;;;22.88;4.88;;;;;;;5.68;60.54;101765.41;4932331;29;20551;-82
2023/01/29 11:44:47;;;;;;;4.35;2.70;;;;;;;5.76;61.19;101775.59;4916623;29;20024;-83
2023/01/29 11:47:15;;;;;;;9.45;3.20;;;;;;;5.45;60.54;101734.84;4932135;29;20036;-82
2023/01/29 11:50:01;;;;;;;12.02;5.50;;;;;;;5.71;60.20;101773.09;4933453;29;20130;-83
2023/01/29 11:52:37;;;;;;;5.18;4.07;;;;;;;5.63;60.34;101786.88;4931773;29;20431;-82
2023/01/29 11:55:05;;;;;;;9.98;3.65;;;;;;;5.56;59.53;101772.38;4917189;29;20474;-83
2023/01/29 11:57:37;;;;;;;4.28;2.63;;;;;;;5.61;60.81;101775.78;4916571;29;20521;-82
2023/01/29 12:00:22;;;;;;;6.00;4.00;;;;;;;5.61;59.06;101780.91;4947898;29;20027;-82
2023/01/29 12:03:12;;;;;;;5.53;3.70;;;;;;;5.67;60.18;101779.09;4917628;29;20074;-83
2023/01/29 12:05:38;;;;;;;7.15;3.65;;;;;;;5.62;60.25;101757.78;4933232;29;20079;-83
2023/01/29 12:08:16;;;;;;;3.40;2.78;;;;;;;5.58;59.61;101760.38;4919065;29;20551;-82
2023/01/29 12:10:41;;;;;;;7.10;3.30;;;;;;;5.60;60.11;101759.50;4920807;29;20036;-82
2023/01/29 12:13:10;;;;;;;4.10;2.53;;;;;;;5.66;59.75;101768.84;4919920;29;20024;-82
2023/01/29 12:15:40;;;;;;;6.07;4.18;;;;;;;5.61;59.22;101765.50;4951553;29;20530;-82
2023/01/29 12:18:37;;;;;;;11.07;4.43;;;;;;;5.64;59.69;101765.47;4919562;29;20034;-82
2023/01/29 12:21:13;;;;;;;7.03;3.45;;;;;;;5.59;59.60;101767.22;4938072;29;20414;-82